createdAt,value
2023-04-21T17:15:30.398Z,5.60
2023-04-21T17:19:59.883Z,6.10
2023-04-21T17:24:38.030Z,7.10
2023-04-21T17:28:55.384Z,7.50
2023-04-21T17:33:26.808Z,10.90
2023-04-21T17:38:01.119Z,10.40
2023-04-21T17:42:40.355Z,12.40
2023-04-21T17:47:12.707Z,13.20
2023-04-21T17:51:44.051Z,14.60
2023-04-21T17:56:13.736Z,17.60
2023-04-21T18:02:10.192Z,18.00
2023-04-21T18:05:24.762Z,19.40
2023-04-21T18:09:55.595Z,25.90
2023-04-21T18:14:25.231Z,14.50
2023-04-21T18:19:27.497Z,19.50
2023-04-21T18:23:19.360Z,28.20
2023-04-21T18:27:00.520Z,17.80
2023-04-21T18:30:51.069Z,12.50
2023-04-21T18:34:41.846Z,11.10
2023-04-21T18:38:15.815Z,12.30
2023-04-21T18:42:08.695Z,16.80
2023-04-21T18:45:58.071Z,23.40
2023-04-21T18:49:47.372Z,24.10
2023-04-21T18:53:37.339Z,46.00
2023-04-21T18:57:09.994Z,34.40
2023-04-21T19:00:40.167Z,26.20
2023-04-21T19:04:11.474Z,18.50
2023-04-21T19:08:01.179Z,17.30
2023-04-21T19:11:53.691Z,17.50
2023-04-21T19:15:43.829Z,17.50
2023-04-21T19:19:33.080Z,24.20
2023-04-21T19:22:50.449Z,22.30
2023-04-21T19:26:30.783Z,20.60
2023-04-21T19:29:43.830Z,19.30
2023-04-21T19:33:32.702Z,18.20
2023-04-21T19:37:13.047Z,15.70
2023-04-21T19:40:38.418Z,16.80
2023-04-21T19:44:25.864Z,16.60
2023-04-21T19:47:34.090Z,17.70
2023-04-21T19:50:59.040Z,17.60
2023-04-21T19:53:43.867Z,20.70
2023-04-21T19:57:06.377Z,21.00
2023-04-21T20:00:01.048Z,28.40
2023-04-21T20:03:13.677Z,30.50
2023-04-21T20:06:13.440Z,27.00
2023-04-21T20:09:06.900Z,29.30
2023-04-21T20:12:07.189Z,29.30
2023-04-21T20:14:54.295Z,29.10
2023-04-21T20:17:38.517Z,28.00
2023-04-21T20:20:17.858Z,26.00
2023-04-21T20:22:51.979Z,31.20
2023-04-21T20:25:44.320Z,31.40
2023-04-21T20:29:05.637Z,33.80
2023-04-21T20:32:37.448Z,32.30
2023-04-21T20:36:09.940Z,30.50
2023-04-21T20:39:23.662Z,29.40
2023-04-21T20:42:48.660Z,32.40
2023-04-21T20:46:19.571Z,33.10
2023-04-21T20:49:02.142Z,28.40
2023-04-21T20:52:40.101Z,24.90
2023-04-21T20:55:56.609Z,25.50
2023-04-21T20:59:26.316Z,29.30
2023-04-21T21:03:16.133Z,30.10
2023-04-21T21:06:48.653Z,28.80
2023-04-21T21:09:58.462Z,18.40
2023-04-21T21:13:37.754Z,18.00
2023-04-21T21:17:26.632Z,15.50
2023-04-21T21:21:16.262Z,14.40
2023-04-21T21:25:07.828Z,20.10
2023-04-21T21:28:38.521Z,21.80
2023-04-21T21:32:07.363Z,22.50
2023-04-21T21:35:39.828Z,23.30
2023-04-21T21:39:17.847Z,22.20
2023-04-21T21:43:00.172Z,22.60
2023-04-21T21:46:46.863Z,23.50
2023-04-21T21:50:20.691Z,22.30
2023-04-21T21:53:54.403Z,21.60
2023-04-21T21:57:26.041Z,22.10
2023-04-21T22:00:47.226Z,22.20
2023-04-21T22:03:58.560Z,21.50
2023-04-21T22:07:38.950Z,21.30
2023-04-21T22:10:34.019Z,19.90
2023-04-21T22:14:21.174Z,18.30
2023-04-21T22:18:00.232Z,19.30
2023-04-21T22:21:23.862Z,19.20
2023-04-21T22:25:12.809Z,19.10
2023-04-21T22:28:53.224Z,19.30
2023-04-21T22:32:25.921Z,19.80
2023-04-21T22:36:15.057Z,18.70
2023-04-21T22:39:31.344Z,19.20
2023-04-21T22:42:44.353Z,18.10
2023-04-21T22:45:54.074Z,19.70
2023-04-21T22:48:56.528Z,19.80
2023-04-21T22:52:01.891Z,18.60
2023-04-21T22:55:38.722Z,18.50
2023-04-21T22:59:15.036Z,20.60
2023-04-21T23:02:20.035Z,19.70
2023-04-21T23:05:29.265Z,19.20
2023-04-21T23:08:53.895Z,21.50
2023-04-21T23:12:16.358Z,20.50
2023-04-21T23:15:27.688Z,20.50
2023-04-21T23:18:57.097Z,20.70
2023-04-21T23:22:24.105Z,20.50
2023-04-21T23:25:40.809Z,18.60
2023-04-21T23:29:18.178Z,18.70
2023-04-21T23:32:27.015Z,18.80
2023-04-21T23:36:05.201Z,18.30
2023-04-21T23:39:21.553Z,18.00
2023-04-21T23:42:29.844Z,18.10
2023-04-21T23:45:55.017Z,18.70
2023-04-21T23:48:36.050Z,18.00
2023-04-21T23:51:17.510Z,16.60
2023-04-21T23:55:06.481Z,14.60
2023-04-21T23:58:54.409Z,16.90
